createdAt,value
2022-10-19T00:01:21.759Z,1
2022-10-19T00:11:21.670Z,1
2022-10-19T00:21:21.644Z,1
2022-10-19T00:31:21.517Z,9
2022-10-19T00:41:21.474Z,1
2022-10-19T00:51:21.379Z,1
2022-10-19T01:01:21.406Z,1
2022-10-19T01:11:21.235Z,1
2022-10-19T01:21:21.152Z,1
2022-10-19T01:31:21.082Z,1
2022-10-19T01:41:21.048Z,1
2022-10-19T01:51:20.936Z,1
2022-10-19T02:01:20.871Z,1
2022-10-19T02:11:20.806Z,1
2022-10-19T02:21:20.754Z,1
2022-10-19T02:31:20.660Z,1
2022-10-19T02:51:20.508Z,1
2022-10-19T03:01:20.511Z,1
2022-10-19T03:11:20.369Z,1
2022-10-19T03:21:20.315Z,1
2022-10-19T03:31:20.226Z,1
2022-10-19T03:41:20.167Z,1
2022-10-19T03:51:20.230Z,1
2022-10-19T04:01:20.204Z,1
2022-10-19T04:11:19.954Z,1
2022-10-19T04:21:19.888Z,1
2022-10-19T04:31:19.828Z,1
2022-10-19T04:41:19.739Z,1
2022-10-19T04:51:19.657Z,1
2022-10-19T05:01:19.736Z,1
2022-10-19T05:11:19.540Z,1
2022-10-19T05:21:19.458Z,1
2022-10-19T05:31:19.476Z,1
2022-10-19T05:41:19.328Z,1
2022-10-19T05:51:19.254Z,1
2022-10-19T06:01:19.374Z,1
2022-10-19T06:11:19.124Z,1
2022-10-19T06:21:19.081Z,1
2022-10-19T06:31:18.979Z,1
2022-10-19T06:41:18.909Z,1
2022-10-19T06:51:18.837Z,1
2022-10-19T07:01:18.847Z,1
2022-10-19T07:11:18.691Z,2
2022-10-19T07:21:18.728Z,10
2022-10-19T07:31:18.671Z,17
2022-10-19T07:41:18.480Z,26
2022-10-19T07:51:18.460Z,34
2022-10-19T08:01:18.356Z,37
2022-10-19T08:11:18.274Z,44
2022-10-19T08:21:18.211Z,46
2022-10-19T08:31:18.128Z,47
2022-10-19T08:41:18.083Z,43
2022-10-19T08:51:17.989Z,38
2022-10-19T09:01:17.931Z,38
2022-10-19T09:11:17.862Z,46
2022-10-19T09:21:17.805Z,51
2022-10-19T09:31:17.715Z,50
2022-10-19T09:41:17.680Z,52
2022-10-19T09:51:17.577Z,50
2022-10-19T10:01:17.525Z,62
2022-10-19T10:11:17.455Z,57
2022-10-19T10:21:18.801Z,59
2022-10-19T10:31:17.284Z,50
2022-10-19T10:41:17.243Z,48
2022-10-19T11:01:17.185Z,58
2022-10-19T11:11:17.014Z,46
2022-10-19T11:21:16.942Z,39
2022-10-19T11:31:16.866Z,30
2022-10-19T11:41:18.190Z,22
2022-10-19T11:51:21.398Z,18
2022-10-19T12:01:16.779Z,22
2022-10-19T12:11:16.610Z,22
2022-10-19T12:21:16.532Z,28
2022-10-19T12:31:16.455Z,16
2022-10-19T12:41:16.521Z,25
2022-10-19T12:51:16.306Z,31
2022-10-19T13:01:16.321Z,42
2022-10-19T13:11:16.162Z,55
2022-10-19T13:21:16.113Z,60
2022-10-19T13:31:16.045Z,63
2022-10-19T13:41:15.979Z,64
2022-10-19T13:51:15.916Z,64
2022-10-19T14:01:16.012Z,63
2022-10-19T14:11:15.765Z,64
2022-10-19T14:21:15.703Z,67
2022-10-19T14:31:15.632Z,71
2022-10-19T14:41:15.552Z,84
2022-10-19T14:51:15.503Z,82
2022-10-19T15:01:15.486Z,84
2022-10-19T15:11:15.380Z,77
2022-10-19T15:21:15.271Z,72
2022-10-19T15:31:15.227Z,73
2022-10-19T15:41:15.171Z,67
2022-10-19T15:51:17.578Z,70
2022-10-19T16:01:15.072Z,72
2022-10-19T16:11:14.957Z,75
2022-10-19T16:21:14.875Z,87
2022-10-19T16:31:14.814Z,90
2022-10-19T16:41:14.756Z,89
2022-10-19T16:51:14.671Z,88
2022-10-19T17:01:14.644Z,86
2022-10-19T17:11:14.539Z,82
2022-10-19T17:21:14.476Z,77
2022-10-19T17:31:14.408Z,76
2022-10-19T17:41:14.324Z,78
2022-10-19T17:51:14.262Z,41
2022-10-19T18:01:14.206Z,67
2022-10-19T18:11:14.132Z,70
2022-10-19T18:21:14.098Z,62
2022-10-19T18:31:13.988Z,35
2022-10-19T18:51:13.848Z,29
2022-10-19T19:01:13.915Z,25
2022-10-19T19:11:13.715Z,40
2022-10-19T19:21:13.638Z,36
2022-10-19T19:31:13.582Z,61
2022-10-19T19:41:13.521Z,48
2022-10-19T19:51:13.450Z,43
2022-10-19T20:01:13.628Z,18
2022-10-19T20:11:13.306Z,5
2022-10-19T20:21:13.255Z,10
2022-10-19T20:31:13.318Z,1
2022-10-19T20:41:13.103Z,1
2022-10-19T20:51:13.031Z,1
2022-10-19T21:01:13.109Z,1
2022-10-19T21:11:12.886Z,1
2022-10-19T21:21:12.846Z,1
2022-10-19T21:31:12.736Z,1
2022-10-19T21:41:12.679Z,1
2022-10-19T21:51:12.600Z,1
2022-10-19T22:01:12.614Z,1
2022-10-19T22:11:12.446Z,1
2022-10-19T22:21:12.421Z,1
2022-10-19T22:31:12.326Z,1
2022-10-19T22:41:12.265Z,1
2022-10-19T22:51:12.194Z,1
2022-10-19T23:01:12.254Z,1
2022-10-19T23:11:12.125Z,1
2022-10-19T23:21:11.960Z,3
2022-10-19T23:31:11.913Z,5
2022-10-19T23:41:11.833Z,2
2022-10-19T23:51:11.877Z,1
